Campbells Crossroads, Alabama
Current Conditions -  °F | °C
As of 9:53 AM on Thursday 27 Nov 2014 (Local Time) from KANB Reporting Station
Broken Clouds Broken Clouds  
Wind Chill: 39°   Ceiling: 4000
Heat Index: 45°   Visibility: 10mi
Dew Point: 29°   Wind: 14mph
Humidity: 53%   Direction: 320°NW
Pressure: 30.35"   Gusts: 24mph
Location:  33.3533°N, 85.7343°W
Report Text: KANB 271553Z AUTO 32012G21KT 10SM BKN040 BKN047 07/M02 A3035 RMK AO2 SLP282 T00721017
Loading
Personal Weather Stations






























Interactive Weather Map New forecast layout! Learn more

10-Day Weather Forecast

Advertisements
Track Severe Weather on mobile